sensor_id;sensor_type;location;lat;lon;timestamp;P1;durP1;ratioP1;P2;durP2;ratioP2
19396;SDS011;9834;48.076;11.878;2022-08-01T00:00:29;1.93;;;1.70;;
19396;SDS011;9834;48.076;11.878;2022-08-01T00:02:56;1.33;;;1.23;;
19396;SDS011;9834;48.076;11.878;2022-08-01T00:05:23;1.40;;;1.23;;
19396;SDS011;9834;48.076;11.878;2022-08-01T00:07:52;1.53;;;1.43;;
19396;SDS011;9834;48.076;11.878;2022-08-01T00:10:19;1.30;;;1.20;;
19396;SDS011;9834;48.076;11.878;2022-08-01T00:12:47;1.77;;;1.67;;
19396;SDS011;9834;48.076;11.878;2022-08-01T00:15:14;1.33;;;1.23;;
19396;SDS011;9834;48.076;11.878;2022-08-01T00:17:43;2.75;;;1.38;;
19396;SDS011;9834;48.076;11.878;2022-08-01T00:20:11;1.47;;;1.37;;
19396;SDS011;9834;48.076;11.878;2022-08-01T00:22:39;1.55;;;1.45;;
19396;SDS011;9834;48.076;11.878;2022-08-01T00:25:07;1.42;;;1.33;;
19396;SDS011;9834;48.076;11.878;2022-08-01T00:27:34;2.03;;;1.40;;
19396;SDS011;9834;48.076;11.878;2022-08-01T00:30:01;1.40;;;1.30;;
19396;SDS011;9834;48.076;11.878;2022-08-01T00:32:29;1.70;;;1.38;;
19396;SDS011;9834;48.076;11.878;2022-08-01T00:34:56;1.42;;;1.10;;
19396;SDS011;9834;48.076;11.878;2022-08-01T00:37:23;1.25;;;1.15;;
19396;SDS011;9834;48.076;11.878;2022-08-01T00:39:50;1.00;;;1.00;;
19396;SDS011;9834;48.076;11.878;2022-08-01T00:42:19;2.53;;;1.60;;
19396;SDS011;9834;48.076;11.878;2022-08-01T00:44:46;1.58;;;1.48;;
19396;SDS011;9834;48.076;11.878;2022-08-01T00:47:13;1.92;;;1.33;;
19396;SDS011;9834;48.076;11.878;2022-08-01T00:49:40;1.63;;;1.53;;
19396;SDS011;9834;48.076;11.878;2022-08-01T00:52:07;1.60;;;1.50;;
19396;SDS011;9834;48.076;11.878;2022-08-01T00:54:35;1.50;;;1.40;;
19396;SDS011;9834;48.076;11.878;2022-08-01T00:57:02;1.35;;;1.25;;
19396;SDS011;9834;48.076;11.878;2022-08-01T00:59:32;1.27;;;1.20;;
19396;SDS011;9834;48.076;11.878;2022-08-01T01:02:00;2.00;;;1.40;;
19396;SDS011;9834;48.076;11.878;2022-08-01T01:04:27;1.20;;;1.20;;
19396;SDS011;9834;48.076;11.878;2022-08-01T01:06:55;1.60;;;1.50;;
19396;SDS011;9834;48.076;11.878;2022-08-01T01:09:33;1.07;;;1.07;;
19396;SDS011;9834;48.076;11.878;2022-08-01T01:12:07;1.30;;;1.20;;
19396;SDS011;9834;48.076;11.878;2022-08-01T01:14:44;4.93;;;1.33;;
19396;SDS011;9834;48.076;11.878;2022-08-01T01:17:17;1.30;;;1.30;;
19396;SDS011;9834;48.076;11.878;2022-08-01T01:19:51;1.30;;;1.20;;
19396;SDS011;9834;48.076;11.878;2022-08-01T01:22:24;1.70;;;1.60;;
19396;SDS011;9834;48.076;11.878;2022-08-01T01:25:09;2.13;;;1.73;;
19396;SDS011;9834;48.076;11.878;2022-08-01T01:27:49;1.67;;;1.57;;
19396;SDS011;9834;48.076;11.878;2022-08-01T01:30:24;1.70;;;1.60;;
19396;SDS011;9834;48.076;11.878;2022-08-01T01:32:54;1.80;;;1.70;;
19396;SDS011;9834;48.076;11.878;2022-08-01T01:35:24;1.70;;;1.33;;
19396;SDS011;9834;48.076;11.878;2022-08-01T01:37:56;1.80;;;1.63;;
19396;SDS011;9834;48.076;11.878;2022-08-01T01:40:27;2.13;;;1.80;;
19396;SDS011;9834;48.076;11.878;2022-08-01T01:42:56;1.30;;;1.20;;
19396;SDS011;9834;48.076;11.878;2022-08-01T01:45:25;1.47;;;1.40;;
19396;SDS011;9834;48.076;11.878;2022-08-01T01:47:53;2.77;;;1.80;;
19396;SDS011;9834;48.076;11.878;2022-08-01T01:50:23;1.60;;;1.50;;
19396;SDS011;9834;48.076;11.878;2022-08-01T01:52:51;1.70;;;1.60;;
19396;SDS011;9834;48.076;11.878;2022-08-01T01:55:19;1.70;;;1.60;;
19396;SDS011;9834;48.076;11.878;2022-08-01T01:57:49;5.17;;;1.57;;
19396;SDS011;9834;48.076;11.878;2022-08-01T02:00:18;1.70;;;1.50;;
19396;SDS011;9834;48.076;11.878;2022-08-01T02:02:46;1.53;;;1.43;;
19396;SDS011;9834;48.076;11.878;2022-08-01T02:05:14;2.87;;;1.60;;
19396;SDS011;9834;48.076;11.878;2022-08-01T02:07:41;1.40;;;1.30;;
19396;SDS011;9834;48.076;11.878;2022-08-01T02:10:10;1.73;;;1.57;;
19396;SDS011;9834;48.076;11.878;2022-08-01T02:12:40;1.70;;;1.53;;
19396;SDS011;9834;48.076;11.878;2022-08-01T02:15:10;1.50;;;1.40;;
19396;SDS011;9834;48.076;11.878;2022-08-01T02:17:41;1.60;;;1.50;;
19396;SDS011;9834;48.076;11.878;2022-08-01T02:20:12;2.43;;;1.67;;
19396;SDS011;9834;48.076;11.878;2022-08-01T02:22:42;1.60;;;1.50;;
19396;SDS011;9834;48.076;11.878;2022-08-01T02:25:15;1.87;;;1.77;;
19396;SDS011;9834;48.076;11.878;2022-08-01T02:27:50;1.53;;;1.43;;
19396;SDS011;9834;48.076;11.878;2022-08-01T02:30:22;4.37;;;1.10;;
19396;SDS011;9834;48.076;11.878;2022-08-01T02:32:53;1.67;;;1.57;;
19396;SDS011;9834;48.076;11.878;2022-08-01T02:35:29;2.37;;;1.40;;
19396;SDS011;9834;48.076;11.878;2022-08-01T02:37:58;1.50;;;1.40;;
19396;SDS011;9834;48.076;11.878;2022-08-01T02:40:28;2.00;;;1.80;;
19396;SDS011;9834;48.076;11.878;2022-08-01T02:42:59;1.50;;;1.40;;
19396;SDS011;9834;48.076;11.878;2022-08-01T02:45:28;4.03;;;2.10;;
19396;SDS011;9834;48.076;11.878;2022-08-01T02:47:57;1.53;;;1.43;;
19396;SDS011;9834;48.076;11.878;2022-08-01T02:50:29;1.60;;;1.50;;
19396;SDS011;9834;48.076;11.878;2022-08-01T02:52:58;1.83;;;1.73;;
19396;SDS011;9834;48.076;11.878;2022-08-01T02:55:26;3.30;;;1.80;;
19396;SDS011;9834;48.076;11.878;2022-08-01T02:57:54;1.87;;;1.77;;
19396;SDS011;9834;48.076;11.878;2022-08-01T03:00:22;2.00;;;1.63;;
19396;SDS011;9834;48.076;11.878;2022-08-01T03:02:51;2.17;;;1.63;;
19396;SDS011;9834;48.076;11.878;2022-08-01T03:05:20;1.23;;;1.20;;
19396;SDS011;9834;48.076;11.878;2022-08-01T03:07:50;2.80;;;1.80;;
19396;SDS011;9834;48.076;11.878;2022-08-01T03:10:19;2.13;;;1.80;;
19396;SDS011;9834;48.076;11.878;2022-08-01T03:12:46;2.10;;;1.90;;
19396;SDS011;9834;48.076;11.878;2022-08-01T03:15:16;1.40;;;1.30;;
19396;SDS011;9834;48.076;11.878;2022-08-01T03:17:45;1.27;;;1.27;;
19396;SDS011;9834;48.076;11.878;2022-08-01T03:20:14;1.70;;;1.60;;
19396;SDS011;9834;48.076;11.878;2022-08-01T03:22:42;2.10;;;1.90;;
19396;SDS011;9834;48.076;11.878;2022-08-01T03:25:12;1.87;;;1.77;;
19396;SDS011;9834;48.076;11.878;2022-08-01T03:27:41;2.83;;;2.13;;
19396;SDS011;9834;48.076;11.878;2022-08-01T03:30:10;5.07;;;1.83;;
19396;SDS011;9834;48.076;11.878;2022-08-01T03:32:38;1.67;;;1.50;;
19396;SDS011;9834;48.076;11.878;2022-08-01T03:35:06;1.87;;;1.77;;
19396;SDS011;9834;48.076;11.878;2022-08-01T03:37:34;2.27;;;1.80;;
19396;SDS011;9834;48.076;11.878;2022-08-01T03:40:06;1.80;;;1.70;;
19396;SDS011;9834;48.076;11.878;2022-08-01T03:42:39;1.60;;;1.50;;
19396;SDS011;9834;48.076;11.878;2022-08-01T03:45:11;5.67;;;1.83;;
19396;SDS011;9834;48.076;11.878;2022-08-01T03:47:45;1.80;;;1.70;;
19396;SDS011;9834;48.076;11.878;2022-08-01T03:50:15;2.43;;;1.73;;
19396;SDS011;9834;48.076;11.878;2022-08-01T03:52:43;2.20;;;2.00;;
19396;SDS011;9834;48.076;11.878;2022-08-01T03:55:14;1.13;;;1.13;;
19396;SDS011;9834;48.076;11.878;2022-08-01T03:57:45;1.23;;;1.13;;
19396;SDS011;9834;48.076;11.878;2022-08-01T04:00:14;2.17;;;1.90;;
19396;SDS011;9834;48.076;11.878;2022-08-01T04:02:46;3.57;;;2.23;;
19396;SDS011;9834;48.076;11.878;2022-08-01T04:05:17;1.90;;;1.80;;
19396;SDS011;9834;48.076;11.878;2022-08-01T04:07:45;2.27;;;1.80;;
19396;SDS011;9834;48.076;11.878;2022-08-01T04:10:20;1.67;;;1.57;;
19396;SDS011;9834;48.076;11.878;2022-08-01T04:12:48;2.00;;;1.67;;
19396;SDS011;9834;48.076;11.878;2022-08-01T04:15:16;1.40;;;1.30;;
19396;SDS011;9834;48.076;11.878;2022-08-01T04:17:45;1.80;;;1.70;;
19396;SDS011;9834;48.076;11.878;2022-08-01T04:20:12;3.83;;;1.73;;
19396;SDS011;9834;48.076;11.878;2022-08-01T04:22:40;1.73;;;1.47;;
19396;SDS011;9834;48.076;11.878;2022-08-01T04:25:09;2.03;;;1.83;;
19396;SDS011;9834;48.076;11.878;2022-08-01T04:27:42;3.73;;;1.60;;
19396;SDS011;9834;48.076;11.878;2022-08-01T04:30:13;1.80;;;1.30;;
19396;SDS011;9834;48.076;11.878;2022-08-01T04:32:44;1.63;;;1.47;;
19396;SDS011;9834;48.076;11.878;2022-08-01T04:35:15;1.57;;;1.40;;
19396;SDS011;9834;48.076;11.878;2022-08-01T04:37:45;1.67;;;1.57;;
19396;SDS011;9834;48.076;11.878;2022-08-01T04:40:16;1.33;;;1.23;;
19396;SDS011;9834;48.076;11.878;2022-08-01T04:42:46;2.13;;;1.60;;
19396;SDS011;9834;48.076;11.878;2022-08-01T04:45:15;2.20;;;1.50;;
19396;SDS011;9834;48.076;11.878;2022-08-01T04:47:43;3.23;;;1.70;;
19396;SDS011;9834;48.076;11.878;2022-08-01T04:50:13;1.23;;;1.13;;
19396;SDS011;9834;48.076;11.878;2022-08-01T04:52:40;1.50;;;1.40;;
19396;SDS011;9834;48.076;11.878;2022-08-01T04:55:10;1.67;;;1.57;;
19396;SDS011;9834;48.076;11.878;2022-08-01T04:57:42;1.03;;;0.97;;
19396;SDS011;9834;48.076;11.878;2022-08-01T05:00:11;1.30;;;1.20;;
19396;SDS011;9834;48.076;11.878;2022-08-01T05:02:40;1.27;;;1.20;;
19396;SDS011;9834;48.076;11.878;2022-08-01T05:05:08;1.17;;;1.10;;
19396;SDS011;9834;48.076;11.878;2022-08-01T05:07:35;2.53;;;1.73;;
19396;SDS011;9834;48.076;11.878;2022-08-01T05:10:03;2.23;;;1.77;;
19396;SDS011;9834;48.076;11.878;2022-08-01T05:12:30;1.27;;;1.27;;
19396;SDS011;9834;48.076;11.878;2022-08-01T05:14:58;1.17;;;1.17;;
19396;SDS011;9834;48.076;11.878;2022-08-01T05:17:25;9.60;;;1.67;;
19396;SDS011;9834;48.076;11.878;2022-08-01T05:19:53;1.37;;;1.33;;
19396;SDS011;9834;48.076;11.878;2022-08-01T05:22:20;1.90;;;1.80;;
19396;SDS011;9834;48.076;11.878;2022-08-01T05:24:50;1.67;;;1.57;;
19396;SDS011;9834;48.076;11.878;2022-08-01T05:27:17;1.30;;;1.20;;
19396;SDS011;9834;48.076;11.878;2022-08-01T05:29:44;1.20;;;1.10;;
19396;SDS011;9834;48.076;11.878;2022-08-01T05:32:11;2.23;;;1.27;;
19396;SDS011;9834;48.076;11.878;2022-08-01T05:34:38;2.30;;;1.60;;
19396;SDS011;9834;48.076;11.878;2022-08-01T05:37:07;1.60;;;1.50;;
19396;SDS011;9834;48.076;11.878;2022-08-01T05:39:34;1.33;;;1.23;;
19396;SDS011;9834;48.076;11.878;2022-08-01T05:42:01;2.83;;;1.47;;
19396;SDS011;9834;48.076;11.878;2022-08-01T05:44:28;1.57;;;1.47;;
19396;SDS011;9834;48.076;11.878;2022-08-01T05:46:55;1.17;;;1.13;;
19396;SDS011;9834;48.076;11.878;2022-08-01T05:49:22;1.90;;;1.50;;
19396;SDS011;9834;48.076;11.878;2022-08-01T05:51:49;1.53;;;1.30;;
19396;SDS011;9834;48.076;11.878;2022-08-01T05:54:19;1.33;;;1.07;;
19396;SDS011;9834;48.076;11.878;2022-08-01T05:56:45;3.50;;;1.43;;
19396;SDS011;9834;48.076;11.878;2022-08-01T05:59:12;2.40;;;1.77;;
19396;SDS011;9834;48.076;11.878;2022-08-01T06:01:39;1.37;;;1.27;;
19396;SDS011;9834;48.076;11.878;2022-08-01T06:04:06;1.63;;;1.50;;
19396;SDS011;9834;48.076;11.878;2022-08-01T06:06:33;2.00;;;1.45;;
19396;SDS011;9834;48.076;11.878;2022-08-01T06:09:00;1.47;;;1.37;;
19396;SDS011;9834;48.076;11.878;2022-08-01T06:11:28;1.50;;;1.40;;
19396;SDS011;9834;48.076;11.878;2022-08-01T06:13:55;1.58;;;1.48;;
19396;SDS011;9834;48.076;11.878;2022-08-01T06:16:22;1.30;;;1.20;;
19396;SDS011;9834;48.076;11.878;2022-08-01T06:18:50;6.43;;;1.55;;
19396;SDS011;9834;48.076;11.878;2022-08-01T06:21:17;1.02;;;1.02;;
19396;SDS011;9834;48.076;11.878;2022-08-01T06:23:44;1.35;;;1.35;;
19396;SDS011;9834;48.076;11.878;2022-08-01T06:26:11;1.50;;;1.40;;
19396;SDS011;9834;48.076;11.878;2022-08-01T06:28:39;1.73;;;1.63;;
19396;SDS011;9834;48.076;11.878;2022-08-01T06:31:06;1.10;;;1.10;;
19396;SDS011;9834;48.076;11.878;2022-08-01T06:33:35;1.23;;;1.10;;
19396;SDS011;9834;48.076;11.878;2022-08-01T06:36:02;2.63;;;1.20;;
19396;SDS011;9834;48.076;11.878;2022-08-01T06:38:29;6.40;;;1.70;;
19396;SDS011;9834;48.076;11.878;2022-08-01T06:40:56;1.80;;;1.65;;
19396;SDS011;9834;48.076;11.878;2022-08-01T06:43:23;1.27;;;1.17;;
19396;SDS011;9834;48.076;11.878;2022-08-01T06:45:52;2.15;;;1.70;;
19396;SDS011;9834;48.076;11.878;2022-08-01T06:48:18;1.55;;;1.45;;
19396;SDS011;9834;48.076;11.878;2022-08-01T06:50:46;1.33;;;1.30;;
19396;SDS011;9834;48.076;11.878;2022-08-01T06:53:13;2.08;;;1.92;;
19396;SDS011;9834;48.076;11.878;2022-08-01T06:55:40;2.03;;;1.77;;
19396;SDS011;9834;48.076;11.878;2022-08-01T06:58:07;1.52;;;1.42;;
19396;SDS011;9834;48.076;11.878;2022-08-01T07:00:34;3.83;;;1.75;;
19396;SDS011;9834;48.076;11.878;2022-08-01T07:03:02;1.50;;;1.40;;
19396;SDS011;9834;48.076;11.878;2022-08-01T07:05:29;2.22;;;1.98;;
19396;SDS011;9834;48.076;11.878;2022-08-01T07:07:56;2.22;;;1.63;;
19396;SDS011;9834;48.076;11.878;2022-08-01T07:10:23;1.83;;;1.73;;
19396;SDS011;9834;48.076;11.878;2022-08-01T07:12:50;1.52;;;1.42;;
19396;SDS011;9834;48.076;11.878;2022-08-01T07:15:17;1.45;;;1.35;;
19396;SDS011;9834;48.076;11.878;2022-08-01T07:17:47;1.30;;;1.30;;
19396;SDS011;9834;48.076;11.878;2022-08-01T07:20:15;1.67;;;1.55;;
19396;SDS011;9834;48.076;11.878;2022-08-01T07:22:42;1.48;;;1.38;;
19396;SDS011;9834;48.076;11.878;2022-08-01T07:25:09;2.20;;;1.48;;
19396;SDS011;9834;48.076;11.878;2022-08-01T07:27:36;1.20;;;1.17;;
19396;SDS011;9834;48.076;11.878;2022-08-01T07:30:04;4.40;;;2.13;;
19396;SDS011;9834;48.076;11.878;2022-08-01T07:32:32;3.53;;;1.58;;
19396;SDS011;9834;48.076;11.878;2022-08-01T07:35:00;2.50;;;1.65;;
19396;SDS011;9834;48.076;11.878;2022-08-01T07:37:28;1.98;;;1.55;;
19396;SDS011;9834;48.076;11.878;2022-08-01T07:39:55;2.15;;;1.60;;
19396;SDS011;9834;48.076;11.878;2022-08-01T07:42:22;1.92;;;1.73;;
19396;SDS011;9834;48.076;11.878;2022-08-01T07:44:49;2.72;;;1.55;;
19396;SDS011;9834;48.076;11.878;2022-08-01T07:47:22;1.45;;;1.35;;
19396;SDS011;9834;48.076;11.878;2022-08-01T07:49:49;1.77;;;1.63;;
19396;SDS011;9834;48.076;11.878;2022-08-01T07:52:17;1.75;;;1.65;;
19396;SDS011;9834;48.076;11.878;2022-08-01T07:54:45;2.05;;;1.85;;
19396;SDS011;9834;48.076;11.878;2022-08-01T07:57:12;1.70;;;1.58;;
19396;SDS011;9834;48.076;11.878;2022-08-01T07:59:39;4.13;;;1.83;;
19396;SDS011;9834;48.076;11.878;2022-08-01T08:02:06;1.70;;;1.60;;
19396;SDS011;9834;48.076;11.878;2022-08-01T08:04:33;1.85;;;1.60;;
19396;SDS011;9834;48.076;11.878;2022-08-01T08:07:00;2.22;;;1.90;;
19396;SDS011;9834;48.076;11.878;2022-08-01T08:09:27;3.50;;;1.70;;
19396;SDS011;9834;48.076;11.878;2022-08-01T08:11:56;1.70;;;1.60;;
19396;SDS011;9834;48.076;11.878;2022-08-01T08:14:23;2.75;;;1.92;;
19396;SDS011;9834;48.076;11.878;2022-08-01T08:16:50;1.70;;;1.60;;
19396;SDS011;9834;48.076;11.878;2022-08-01T08:19:17;5.47;;;2.33;;
19396;SDS011;9834;48.076;11.878;2022-08-01T08:21:44;1.65;;;1.55;;
19396;SDS011;9834;48.076;11.878;2022-08-01T08:24:11;1.60;;;1.50;;
19396;SDS011;9834;48.076;11.878;2022-08-01T08:26:49;3.03;;;2.13;;
19396;SDS011;9834;48.076;11.878;2022-08-01T08:29:20;2.33;;;2.13;;
19396;SDS011;9834;48.076;11.878;2022-08-01T08:31:52;2.83;;;2.08;;
19396;SDS011;9834;48.076;11.878;2022-08-01T08:34:20;1.90;;;1.80;;
19396;SDS011;9834;48.076;11.878;2022-08-01T08:36:48;2.00;;;1.80;;
19396;SDS011;9834;48.076;11.878;2022-08-01T08:39:16;1.95;;;1.73;;
19396;SDS011;9834;48.076;11.878;2022-08-01T08:41:44;1.75;;;1.63;;
19396;SDS011;9834;48.076;11.878;2022-08-01T08:44:12;1.70;;;1.60;;
19396;SDS011;9834;48.076;11.878;2022-08-01T08:46:41;2.00;;;1.80;;
19396;SDS011;9834;48.076;11.878;2022-08-01T08:49:10;2.88;;;1.58;;
19396;SDS011;9834;48.076;11.878;2022-08-01T08:51:39;1.90;;;1.65;;
19396;SDS011;9834;48.076;11.878;2022-08-01T08:54:10;1.77;;;1.67;;
19396;SDS011;9834;48.076;11.878;2022-08-01T08:56:38;2.15;;;1.92;;
19396;SDS011;9834;48.076;11.878;2022-08-01T08:59:06;2.65;;;1.90;;
19396;SDS011;9834;48.076;11.878;2022-08-01T09:01:33;1.55;;;1.45;;
19396;SDS011;9834;48.076;11.878;2022-08-01T09:04:02;1.20;;;1.20;;
19396;SDS011;9834;48.076;11.878;2022-08-01T09:06:29;2.75;;;1.73;;
19396;SDS011;9834;48.076;11.878;2022-08-01T09:08:57;2.08;;;1.88;;
19396;SDS011;9834;48.076;11.878;2022-08-01T09:11:26;1.73;;;1.63;;
19396;SDS011;9834;48.076;11.878;2022-08-01T09:14:03;1.25;;;1.15;;
19396;SDS011;9834;48.076;11.878;2022-08-01T09:16:35;1.67;;;1.52;;
19396;SDS011;9834;48.076;11.878;2022-08-01T09:19:09;2.58;;;1.42;;
19396;SDS011;9834;48.076;11.878;2022-08-01T09:21:37;1.58;;;1.48;;
19396;SDS011;9834;48.076;11.878;2022-08-01T09:24:12;1.45;;;1.35;;
19396;SDS011;9834;48.076;11.878;2022-08-01T09:26:41;1.25;;;1.15;;
19396;SDS011;9834;48.076;11.878;2022-08-01T09:29:17;2.30;;;1.48;;
19396;SDS011;9834;48.076;11.878;2022-08-01T09:31:46;1.95;;;1.23;;
19396;SDS011;9834;48.076;11.878;2022-08-01T09:34:14;5.93;;;1.13;;
19396;SDS011;9834;48.076;11.878;2022-08-01T09:36:43;1.42;;;1.33;;
19396;SDS011;9834;48.076;11.878;2022-08-01T09:39:16;1.23;;;0.85;;
19396;SDS011;9834;48.076;11.878;2022-08-01T09:41:44;2.67;;;1.70;;
19396;SDS011;9834;48.076;11.878;2022-08-01T09:44:11;1.45;;;1.17;;
19396;SDS011;9834;48.076;11.878;2022-08-01T09:46:48;1.73;;;1.23;;
19396;SDS011;9834;48.076;11.878;2022-08-01T09:49:30;1.23;;;1.13;;
19396;SDS011;9834;48.076;11.878;2022-08-01T09:51:59;1.35;;;1.25;;
19396;SDS011;9834;48.076;11.878;2022-08-01T09:54:37;1.30;;;1.20;;
19396;SDS011;9834;48.076;11.878;2022-08-01T09:57:08;1.25;;;1.23;;
19396;SDS011;9834;48.076;11.878;2022-08-01T09:59:37;1.13;;;1.02;;
19396;SDS011;9834;48.076;11.878;2022-08-01T10:02:07;3.33;;;1.67;;
19396;SDS011;9834;48.076;11.878;2022-08-01T10:04:37;1.33;;;1.23;;
19396;SDS011;9834;48.076;11.878;2022-08-01T10:07:13;1.40;;;1.10;;
19396;SDS011;9834;48.076;11.878;2022-08-01T10:09:41;2.90;;;1.77;;
19396;SDS011;9834;48.076;11.878;2022-08-01T10:12:09;1.30;;;1.20;;
19396;SDS011;9834;48.076;11.878;2022-08-01T10:14:38;1.52;;;1.42;;
19396;SDS011;9834;48.076;11.878;2022-08-01T10:17:07;6.65;;;1.38;;
19396;SDS011;9834;48.076;11.878;2022-08-01T10:19:35;2.00;;;1.10;;
19396;SDS011;9834;48.076;11.878;2022-08-01T10:22:04;1.52;;;1.20;;
19396;SDS011;9834;48.076;11.878;2022-08-01T10:24:36;1.05;;;1.00;;
19396;SDS011;9834;48.076;11.878;2022-08-01T10:27:04;1.00;;;0.95;;
19396;SDS011;9834;48.076;11.878;2022-08-01T10:29:34;2.33;;;1.60;;
19396;SDS011;9834;48.076;11.878;2022-08-01T10:32:06;0.85;;;0.85;;
19396;SDS011;9834;48.076;11.878;2022-08-01T10:34:34;1.10;;;1.00;;
19396;SDS011;9834;48.076;11.878;2022-08-01T10:37:02;1.65;;;0.98;;
19396;SDS011;9834;48.076;11.878;2022-08-01T10:39:31;1.00;;;0.88;;
19396;SDS011;9834;48.076;11.878;2022-08-01T10:41:59;1.23;;;1.13;;
19396;SDS011;9834;48.076;11.878;2022-08-01T10:44:28;1.63;;;1.13;;
19396;SDS011;9834;48.076;11.878;2022-08-01T10:46:57;2.25;;;1.23;;
19396;SDS011;9834;48.076;11.878;2022-08-01T10:49:29;4.05;;;1.38;;
19396;SDS011;9834;48.076;11.878;2022-08-01T10:52:01;0.77;;;0.77;;
19396;SDS011;9834;48.076;11.878;2022-08-01T10:54:28;0.90;;;0.90;;
19396;SDS011;9834;48.076;11.878;2022-08-01T10:57:04;1.00;;;1.00;;
19396;SDS011;9834;48.076;11.878;2022-08-01T10:59:32;3.40;;;0.82;;
19396;SDS011;9834;48.076;11.878;2022-08-01T11:02:01;3.33;;;0.90;;
19396;SDS011;9834;48.076;11.878;2022-08-01T11:04:32;0.77;;;0.70;;
19396;SDS011;9834;48.076;11.878;2022-08-01T11:07:06;0.85;;;0.73;;
19396;SDS011;9834;48.076;11.878;2022-08-01T11:09:40;0.80;;;0.80;;
19396;SDS011;9834;48.076;11.878;2022-08-01T11:12:09;0.63;;;0.63;;
19396;SDS011;9834;48.076;11.878;2022-08-01T11:17:54;1.83;;;1.15;;
19396;SDS011;9834;48.076;11.878;2022-08-01T11:20:22;0.60;;;0.60;;
19396;SDS011;9834;48.076;11.878;2022-08-01T11:26:17;2.90;;;1.20;;
19396;SDS011;9834;48.076;11.878;2022-08-01T11:28:46;0.82;;;0.82;;
19396;SDS011;9834;48.076;11.878;2022-08-01T11:31:28;0.80;;;0.80;;
19396;SDS011;9834;48.076;11.878;2022-08-01T11:33:57;1.27;;;1.00;;
19396;SDS011;9834;48.076;11.878;2022-08-01T11:36:25;1.35;;;0.88;;
19396;SDS011;9834;48.076;11.878;2022-08-01T11:39:12;0.82;;;0.82;;
19396;SDS011;9834;48.076;11.878;2022-08-01T11:41:47;1.08;;;0.98;;
19396;SDS011;9834;48.076;11.878;2022-08-01T11:44:17;0.75;;;0.63;;
19396;SDS011;9834;48.076;11.878;2022-08-01T11:46:48;1.13;;;0.88;;
19396;SDS011;9834;48.076;11.878;2022-08-01T11:49:23;1.13;;;0.90;;
19396;SDS011;9834;48.076;11.878;2022-08-01T11:51:58;1.20;;;1.13;;
19396;SDS011;9834;48.076;11.878;2022-08-01T11:54:27;1.55;;;1.00;;
19396;SDS011;9834;48.076;11.878;2022-08-01T11:56:57;0.75;;;0.75;;
19396;SDS011;9834;48.076;11.878;2022-08-01T11:59:25;1.20;;;1.10;;
19396;SDS011;9834;48.076;11.878;2022-08-01T12:01:53;1.38;;;1.02;;
19396;SDS011;9834;48.076;11.878;2022-08-01T12:04:20;1.42;;;1.15;;
19396;SDS011;9834;48.076;11.878;2022-08-01T12:06:47;1.30;;;1.17;;
19396;SDS011;9834;48.076;11.878;2022-08-01T12:09:15;0.70;;;0.70;;
19396;SDS011;9834;48.076;11.878;2022-08-01T12:11:45;1.05;;;0.80;;
19396;SDS011;9834;48.076;11.878;2022-08-01T12:14:18;0.93;;;0.90;;
19396;SDS011;9834;48.076;11.878;2022-08-01T12:16:50;0.60;;;0.60;;
19396;SDS011;9834;48.076;11.878;2022-08-01T12:19:19;1.73;;;1.02;;
19396;SDS011;9834;48.076;11.878;2022-08-01T12:22:06;1.17;;;1.08;;
19396;SDS011;9834;48.076;11.878;2022-08-01T12:24:34;0.57;;;0.57;;
19396;SDS011;9834;48.076;11.878;2022-08-01T12:27:02;1.20;;;1.02;;
19396;SDS011;9834;48.076;11.878;2022-08-01T12:29:37;0.73;;;0.73;;
19396;SDS011;9834;48.076;11.878;2022-08-01T12:32:20;0.90;;;0.90;;
19396;SDS011;9834;48.076;11.878;2022-08-01T12:34:49;1.10;;;1.00;;
19396;SDS011;9834;48.076;11.878;2022-08-01T12:37:16;1.33;;;1.15;;
19396;SDS011;9834;48.076;11.878;2022-08-01T12:39:44;0.75;;;0.75;;
19396;SDS011;9834;48.076;11.878;2022-08-01T12:42:12;0.70;;;0.70;;
19396;SDS011;9834;48.076;11.878;2022-08-01T12:44:41;1.20;;;1.10;;
19396;SDS011;9834;48.076;11.878;2022-08-01T12:47:11;0.47;;;0.47;;
19396;SDS011;9834;48.076;11.878;2022-08-01T12:49:39;1.40;;;0.80;;
19396;SDS011;9834;48.076;11.878;2022-08-01T12:52:09;2.40;;;0.73;;
19396;SDS011;9834;48.076;11.878;2022-08-01T12:57:28;0.60;;;0.60;;
19396;SDS011;9834;48.076;11.878;2022-08-01T13:00:06;0.60;;;0.60;;
19396;SDS011;9834;48.076;11.878;2022-08-01T13:02:38;0.68;;;0.68;;
19396;SDS011;9834;48.076;11.878;2022-08-01T13:05:06;0.90;;;0.80;;
19396;SDS011;9834;48.076;11.878;2022-08-01T13:07:35;0.52;;;0.52;;
19396;SDS011;9834;48.076;11.878;2022-08-01T13:10:07;0.70;;;0.70;;
19396;SDS011;9834;48.076;11.878;2022-08-01T13:12:34;0.98;;;0.70;;
19396;SDS011;9834;48.076;11.878;2022-08-01T13:17:46;1.17;;;0.80;;
19396;SDS011;9834;48.076;11.878;2022-08-01T13:20:27;9.18;;;1.10;;
19396;SDS011;9834;48.076;11.878;2022-08-01T13:23:09;0.60;;;0.60;;
19396;SDS011;9834;48.076;11.878;2022-08-01T13:25:46;1.30;;;0.95;;
19396;SDS011;9834;48.076;11.878;2022-08-01T13:28:18;0.47;;;0.47;;
19396;SDS011;9834;48.076;11.878;2022-08-01T13:30:52;2.38;;;0.88;;
19396;SDS011;9834;48.076;11.878;2022-08-01T13:33:22;2.67;;;0.80;;
19396;SDS011;9834;48.076;11.878;2022-08-01T13:35:50;1.00;;;0.52;;
19396;SDS011;9834;48.076;11.878;2022-08-01T13:38:18;0.73;;;0.73;;
19396;SDS011;9834;48.076;11.878;2022-08-01T13:41:06;1.50;;;0.93;;
19396;SDS011;9834;48.076;11.878;2022-08-01T13:43:33;0.70;;;0.70;;
19396;SDS011;9834;48.076;11.878;2022-08-01T13:46:02;0.88;;;0.82;;
19396;SDS011;9834;48.076;11.878;2022-08-01T13:48:29;4.38;;;0.95;;
19396;SDS011;9834;48.076;11.878;2022-08-01T13:50:57;0.80;;;0.60;;
19396;SDS011;9834;48.076;11.878;2022-08-01T13:53:24;0.80;;;0.75;;
19396;SDS011;9834;48.076;11.878;2022-08-01T13:55:52;1.88;;;0.95;;
19396;SDS011;9834;48.076;11.878;2022-08-01T13:58:19;0.70;;;0.70;;
19396;SDS011;9834;48.076;11.878;2022-08-01T14:00:46;4.65;;;1.10;;
19396;SDS011;9834;48.076;11.878;2022-08-01T14:03:14;1.42;;;0.90;;
19396;SDS011;9834;48.076;11.878;2022-08-01T14:05:42;4.28;;;1.00;;
19396;SDS011;9834;48.076;11.878;2022-08-01T14:08:09;1.15;;;0.65;;
19396;SDS011;9834;48.076;11.878;2022-08-01T14:10:37;0.80;;;0.80;;
19396;SDS011;9834;48.076;11.878;2022-08-01T14:13:04;1.13;;;0.80;;
19396;SDS011;9834;48.076;11.878;2022-08-01T14:15:31;0.77;;;0.60;;
19396;SDS011;9834;48.076;11.878;2022-08-01T14:17:59;0.82;;;0.82;;
19396;SDS011;9834;48.076;11.878;2022-08-01T14:20:27;5.43;;;0.63;;
19396;SDS011;9834;48.076;11.878;2022-08-01T14:22:54;0.73;;;0.73;;
19396;SDS011;9834;48.076;11.878;2022-08-01T14:25:21;0.75;;;0.57;;
19396;SDS011;9834;48.076;11.878;2022-08-01T14:27:48;1.95;;;0.82;;
19396;SDS011;9834;48.076;11.878;2022-08-01T14:30:15;0.50;;;0.50;;
19396;SDS011;9834;48.076;11.878;2022-08-01T14:32:42;0.60;;;0.60;;
19396;SDS011;9834;48.076;11.878;2022-08-01T14:35:09;0.50;;;0.50;;
19396;SDS011;9834;48.076;11.878;2022-08-01T14:37:38;0.47;;;0.47;;
19396;SDS011;9834;48.076;11.878;2022-08-01T14:40:05;0.40;;;0.40;;
19396;SDS011;9834;48.076;11.878;2022-08-01T14:42:34;1.20;;;0.60;;
19396;SDS011;9834;48.076;11.878;2022-08-01T14:45:02;0.47;;;0.47;;
19396;SDS011;9834;48.076;11.878;2022-08-01T14:47:33;0.63;;;0.50;;
19396;SDS011;9834;48.076;11.878;2022-08-01T14:50:01;1.23;;;0.68;;
19396;SDS011;9834;48.076;11.878;2022-08-01T14:52:29;1.88;;;0.73;;
19396;SDS011;9834;48.076;11.878;2022-08-01T14:54:57;1.75;;;0.68;;
19396;SDS011;9834;48.076;11.878;2022-08-01T14:57:24;0.40;;;0.40;;
19396;SDS011;9834;48.076;11.878;2022-08-01T14:59:51;1.02;;;0.60;;
19396;SDS011;9834;48.076;11.878;2022-08-01T15:02:18;0.40;;;0.40;;
19396;SDS011;9834;48.076;11.878;2022-08-01T15:04:45;1.33;;;0.80;;
19396;SDS011;9834;48.076;11.878;2022-08-01T15:07:13;2.05;;;1.13;;
19396;SDS011;9834;48.076;11.878;2022-08-01T15:09:41;1.00;;;0.77;;
19396;SDS011;9834;48.076;11.878;2022-08-01T15:12:10;0.40;;;0.40;;